createdAt,value
2023-02-18T00:03:02.490Z,96925.00
2023-02-18T00:07:07.647Z,96928.00
2023-02-18T00:11:10.907Z,96932.00
2023-02-18T00:15:16.376Z,96937.00
2023-02-18T00:19:23.584Z,96937.00
2023-02-18T00:23:29.676Z,96927.00
2023-02-18T00:27:32.816Z,96937.00
2023-02-18T00:31:38.553Z,96943.00
2023-02-18T00:35:43.061Z,96928.00
2023-02-18T00:39:47.754Z,96925.00
2023-02-18T00:43:54.017Z,96917.00
2023-02-18T00:47:57.167Z,96927.00
2023-02-18T00:52:01.752Z,96928.00
2023-02-18T00:56:05.824Z,96928.00
2023-02-18T01:00:10.644Z,96925.00
2023-02-18T01:04:16.366Z,96923.00
2023-02-18T01:08:25.053Z,96932.00
2023-02-18T01:12:29.972Z,96916.00
2023-02-18T01:16:33.087Z,96915.00
2023-02-18T01:20:41.054Z,96918.00
2023-02-18T01:24:46.469Z,96923.00
2023-02-18T01:28:49.597Z,96908.00
2023-02-18T01:32:52.863Z,96916.00
2023-02-18T01:36:57.370Z,96913.00
2023-02-18T01:41:01.875Z,96918.00
2023-02-18T01:45:41.037Z,96913.00
2023-02-18T01:49:47.681Z,96912.00
2023-02-18T01:53:56.291Z,96887.00
2023-02-18T01:58:02.706Z,96899.00
2023-02-18T02:02:08.379Z,96901.00
2023-02-18T02:06:17.937Z,96905.00
2023-02-18T02:10:21.541Z,96893.00
2023-02-18T02:14:41.802Z,96896.00
2023-02-18T02:18:56.547Z,96900.00
2023-02-18T02:24:02.325Z,96894.00
2023-02-18T02:28:34.044Z,96898.00
2023-02-18T02:33:16.096Z,96877.00
2023-02-18T02:37:27.198Z,96884.00
2023-02-18T02:41:47.745Z,96881.00
2023-02-18T02:45:59.608Z,96870.00
2023-02-18T02:50:09.398Z,96865.00
2023-02-18T02:54:19.949Z,96851.00
2023-02-18T02:58:26.768Z,96854.00
2023-02-18T03:02:42.288Z,96857.00
2023-02-18T03:07:01.334Z,96853.00
2023-02-18T03:11:08.183Z,96846.00
2023-02-18T03:15:25.884Z,96848.00
2023-02-18T03:19:34.155Z,96843.00
2023-02-18T03:23:47.945Z,96850.00
2023-02-18T03:27:56.323Z,96847.00
2023-02-18T03:32:04.320Z,96857.00
2023-02-18T03:36:16.340Z,96850.00
2023-02-18T03:40:22.449Z,96859.00
2023-02-18T03:44:29.413Z,96859.00
2023-02-18T03:48:32.453Z,96843.00
2023-02-18T03:52:36.808Z,96856.00
2023-02-18T03:56:39.852Z,96855.00
2023-02-18T04:00:44.906Z,96861.00
2023-02-18T04:04:48.052Z,96869.00
2023-02-18T04:08:53.511Z,96868.00
2023-02-18T04:12:56.821Z,96874.00
2023-02-18T04:17:03.166Z,96862.00
2023-02-18T04:21:09.424Z,96871.00
2023-02-18T04:25:12.744Z,96863.00
2023-02-18T04:29:18.910Z,96854.00
2023-02-18T04:33:25.558Z,96863.00
2023-02-18T04:37:28.594Z,96871.00
2023-02-18T04:41:34.937Z,96865.00
2023-02-18T04:45:38.199Z,96860.00
2023-02-18T04:49:47.324Z,96864.00
2023-02-18T04:53:51.881Z,96869.00
2023-02-18T04:57:58.158Z,96873.00
2023-02-18T05:02:02.735Z,96865.00
2023-02-18T05:06:10.176Z,96862.00
2023-02-18T05:10:20.829Z,96874.00
2023-02-18T05:14:26.771Z,96870.00
2023-02-18T05:18:33.004Z,96866.00
2023-02-18T05:22:40.372Z,96865.00
2023-02-18T05:26:43.422Z,96867.00
2023-02-18T05:30:50.352Z,96860.00
2023-02-18T05:34:56.355Z,96863.00
2023-02-18T05:39:02.132Z,96859.00
2023-02-18T05:43:08.156Z,96860.00
2023-02-18T05:47:13.568Z,96855.00
2023-02-18T05:51:16.837Z,96861.00
2023-02-18T05:55:21.574Z,96853.00
2023-02-18T05:59:25.277Z,96856.00
2023-02-18T06:03:28.580Z,96857.00
2023-02-18T06:07:43.394Z,96861.00
2023-02-18T06:11:50.271Z,96855.00
2023-02-18T06:15:53.708Z,96859.00
2023-02-18T06:19:56.775Z,96866.00
2023-02-18T06:23:59.836Z,96861.00
2023-02-18T06:28:04.639Z,96870.00
2023-02-18T06:32:10.910Z,96869.00
2023-02-18T06:36:17.249Z,96871.00
2023-02-18T06:40:22.820Z,96877.00
2023-02-18T06:44:32.329Z,96871.00
2023-02-18T06:48:35.529Z,96878.00
2023-02-18T06:52:39.173Z,96869.00
2023-02-18T06:56:42.461Z,96877.00
2023-02-18T07:00:49.752Z,96872.00
2023-02-18T07:04:52.957Z,96865.00
2023-02-18T07:08:56.263Z,96858.00
2023-02-18T07:13:01.595Z,96854.00
2023-02-18T07:17:06.103Z,96848.00
2023-02-18T07:21:13.739Z,96838.00
2023-02-18T07:25:17.235Z,96832.00
2023-02-18T07:29:20.247Z,96831.00
2023-02-18T07:33:24.890Z,96826.00
2023-02-18T07:37:28.030Z,96822.00
2023-02-18T07:41:31.203Z,96817.00
2023-02-18T07:45:34.361Z,96827.00
2023-02-18T07:49:38.816Z,96820.00
2023-02-18T07:53:42.514Z,96821.00
2023-02-18T07:58:00.431Z,96813.00
2023-02-18T08:02:07.741Z,96808.00
2023-02-18T08:06:22.278Z,96814.00
2023-02-18T08:10:25.436Z,96834.00
2023-02-18T08:14:29.126Z,96830.00
2023-02-18T08:18:38.533Z,96815.00
2023-02-18T08:22:42.940Z,96810.00
2023-02-18T08:27:00.256Z,96809.00
2023-02-18T08:31:06.693Z,96810.00
2023-02-18T08:35:14.397Z,96796.00
2023-02-18T08:39:31.889Z,96791.00
2023-02-18T08:43:34.983Z,96788.00
2023-02-18T08:48:17.157Z,96788.00
2023-02-18T08:52:04.377Z,96782.00
2023-02-18T08:56:11.008Z,96774.00
2023-02-18T09:00:17.744Z,96778.00
2023-02-18T09:04:23.739Z,96764.00
2023-02-18T09:08:32.086Z,96770.00
2023-02-18T09:12:36.916Z,96764.00
2023-02-18T09:16:42.178Z,96770.00
2023-02-18T09:20:47.245Z,96773.00
2023-02-18T09:24:52.242Z,96767.00
2023-02-18T09:28:58.250Z,96760.00
2023-02-18T09:33:03.287Z,96760.00
2023-02-18T09:37:09.171Z,96740.00
2023-02-18T09:41:36.037Z,96727.00
2023-02-18T09:45:41.060Z,96725.00
2023-02-18T09:50:00.851Z,96708.00
2023-02-18T09:54:03.933Z,96702.00
2023-02-18T09:58:13.968Z,96709.00
2023-02-18T10:02:21.846Z,96691.00
2023-02-18T10:06:31.049Z,96699.00
2023-02-18T10:10:40.627Z,96701.00
2023-02-18T10:14:45.697Z,96712.00
2023-02-18T10:18:57.182Z,96700.00
2023-02-18T10:23:07.381Z,96698.00
2023-02-18T10:27:11.088Z,96687.00
2023-02-18T10:31:24.174Z,96697.00
2023-02-18T10:35:36.108Z,96701.00
2023-02-18T10:39:55.150Z,96701.00
2023-02-18T10:44:08.412Z,96688.00
2023-02-18T10:48:37.866Z,96698.00
2023-02-18T10:52:48.818Z,96690.00
2023-02-18T10:56:53.587Z,96675.00
2023-02-18T11:00:58.093Z,96677.00
2023-02-18T11:05:20.232Z,96673.00
2023-02-18T11:09:32.071Z,96659.00
2023-02-18T11:13:35.517Z,96646.00
2023-02-18T11:17:41.912Z,96613.00
2023-02-18T11:21:47.200Z,96642.00
2023-02-18T11:26:02.111Z,96637.00
2023-02-18T11:30:19.919Z,96627.00
2023-02-18T11:34:28.549Z,96620.00
2023-02-18T11:38:39.312Z,96618.00
2023-02-18T11:42:46.457Z,96608.00
2023-02-18T11:47:02.622Z,96607.00
2023-02-18T11:51:07.358Z,96606.00
2023-02-18T11:55:18.193Z,96592.00
2023-02-18T11:59:24.883Z,96580.00
2023-02-18T12:03:35.923Z,96570.00
2023-02-18T12:07:47.200Z,96573.00
2023-02-18T12:11:58.613Z,96576.00
2023-02-18T12:16:17.315Z,96577.00
2023-02-18T12:21:04.896Z,96566.00
2023-02-18T12:25:23.810Z,96556.00
2023-02-18T12:29:42.210Z,96540.00
2023-02-18T12:33:57.775Z,96558.00
2023-02-18T12:38:13.832Z,96549.00
2023-02-18T12:42:47.438Z,96559.00
2023-02-18T12:47:05.315Z,96563.00
2023-02-18T12:51:36.569Z,96548.00
2023-02-18T12:55:55.895Z,96554.00
2023-02-18T13:00:33.391Z,96555.00
2023-02-18T13:04:54.160Z,96553.00
2023-02-18T13:09:11.047Z,96550.00
2023-02-18T13:13:19.387Z,96546.00
2023-02-18T13:17:23.154Z,96535.00
2023-02-18T13:21:27.534Z,96525.00
2023-02-18T13:25:35.577Z,96528.00
2023-02-18T13:29:43.697Z,96529.00
2023-02-18T13:33:54.839Z,96522.00
2023-02-18T13:38:10.015Z,96537.00
2023-02-18T13:42:43.323Z,96535.00
2023-02-18T13:46:51.638Z,96519.00
2023-02-18T13:50:57.838Z,96514.00
2023-02-18T13:55:00.889Z,96523.00
2023-02-18T13:59:17.875Z,96521.00
2023-02-18T14:03:40.156Z,96536.00
2023-02-18T14:07:48.348Z,96496.00
2023-02-18T14:11:56.593Z,96515.00
2023-02-18T14:16:02.108Z,96543.00
2023-02-18T14:20:47.478Z,96498.00
2023-02-18T14:24:56.987Z,96516.00
2023-02-18T14:29:06.034Z,96513.00
2023-02-18T14:33:17.385Z,96523.00
2023-02-18T14:38:06.776Z,96526.00
2023-02-18T14:42:25.156Z,96527.00
2023-02-18T14:46:41.337Z,96519.00
2023-02-18T14:50:50.369Z,96519.00
2023-02-18T14:54:58.194Z,96518.00
2023-02-18T14:59:04.278Z,96515.00
2023-02-18T15:03:14.563Z,96521.00
2023-02-18T15:07:22.869Z,96520.00
2023-02-18T15:11:29.773Z,96513.00
2023-02-18T15:15:35.473Z,96503.00
2023-02-18T15:19:45.212Z,96510.00
2023-02-18T15:23:50.279Z,96520.00
2023-02-18T15:27:57.575Z,96517.00
2023-02-18T15:32:01.810Z,96522.00
2023-02-18T15:36:09.438Z,96515.00
2023-02-18T15:40:17.395Z,96518.00
2023-02-18T15:44:24.311Z,96509.00
2023-02-18T15:48:37.243Z,96513.00
2023-02-18T15:52:41.874Z,96523.00
2023-02-18T15:56:53.399Z,96519.00
2023-02-18T16:01:05.865Z,96530.00
2023-02-18T16:05:15.250Z,96532.00
2023-02-18T16:09:26.054Z,96528.00
2023-02-18T16:13:31.480Z,96534.00
2023-02-18T16:17:34.713Z,96546.00
2023-02-18T16:21:40.662Z,96534.00
2023-02-18T16:25:54.024Z,96521.00
2023-02-18T16:30:02.981Z,96552.00
2023-02-18T16:34:07.965Z,96556.00
2023-02-18T16:38:20.686Z,96567.00
2023-02-18T16:42:26.781Z,96575.00
2023-02-18T16:46:35.378Z,96574.00
2023-02-18T16:50:39.204Z,96583.00
2023-02-18T16:54:42.266Z,96587.00
2023-02-18T16:58:47.882Z,96599.00
2023-02-18T17:02:55.729Z,96586.00
2023-02-18T17:06:59.091Z,96602.00
2023-02-18T17:11:03.847Z,96606.00
2023-02-18T17:15:19.012Z,96608.00
2023-02-18T17:19:23.450Z,96613.00
2023-02-18T17:23:27.730Z,96623.00
2023-02-18T17:27:30.827Z,96633.00
2023-02-18T17:31:39.025Z,96629.00
2023-02-18T17:35:47.437Z,96633.00
2023-02-18T17:39:51.445Z,96639.00
2023-02-18T17:43:58.313Z,96658.00
2023-02-18T17:48:03.225Z,96660.00
2023-02-18T17:52:08.154Z,96657.00
2023-02-18T17:56:14.365Z,96656.00
2023-02-18T18:00:21.165Z,96658.00
2023-02-18T18:04:24.237Z,96667.00
2023-02-18T18:08:31.383Z,96670.00
2023-02-18T18:12:37.750Z,96666.00
2023-02-18T18:16:45.463Z,96658.00
2023-02-18T18:20:54.740Z,96671.00
2023-02-18T18:24:59.630Z,96663.00
2023-02-18T18:29:04.518Z,96669.00
2023-02-18T18:33:15.872Z,96667.00
2023-02-18T18:37:20.469Z,96682.00
2023-02-18T18:41:26.813Z,96682.00
2023-02-18T18:45:46.315Z,96674.00
2023-02-18T18:49:50.484Z,96676.00
2023-02-18T18:54:01.130Z,96686.00
2023-02-18T18:58:06.545Z,96676.00
2023-02-18T19:02:19.991Z,96681.00
2023-02-18T19:06:23.366Z,96685.00
2023-02-18T19:10:28.680Z,96680.00
2023-02-18T19:14:33.080Z,96687.00
2023-02-18T19:18:37.993Z,96698.00
2023-02-18T19:22:42.592Z,96689.00
2023-02-18T19:26:45.602Z,96686.00
2023-02-18T19:30:50.615Z,96700.00
2023-02-18T19:34:53.633Z,96700.00
2023-02-18T19:38:56.655Z,96701.00
2023-02-18T19:43:01.536Z,96698.00
2023-02-18T19:47:07.210Z,96684.00
2023-02-18T19:51:11.116Z,96688.00
2023-02-18T19:55:17.343Z,96695.00
2023-02-18T19:59:25.187Z,96688.00
2023-02-18T20:03:30.259Z,96684.00
2023-02-18T20:07:37.413Z,96698.00
2023-02-18T20:11:40.504Z,96691.00
2023-02-18T20:15:46.868Z,96701.00
2023-02-18T20:19:51.412Z,96702.00
2023-02-18T20:23:56.576Z,96701.00
2023-02-18T20:28:01.530Z,96696.00
2023-02-18T20:32:07.579Z,96699.00
2023-02-18T20:36:14.877Z,96705.00
2023-02-18T20:40:21.347Z,96695.00
2023-02-18T20:44:26.055Z,96700.00
2023-02-18T20:48:32.188Z,96701.00
2023-02-18T20:52:36.875Z,96694.00
2023-02-18T20:56:40.735Z,96695.00
2023-02-18T21:00:43.749Z,96682.00
2023-02-18T21:04:46.850Z,96683.00
2023-02-18T21:08:54.953Z,96684.00
2023-02-18T21:13:01.236Z,96691.00
2023-02-18T21:17:05.110Z,96690.00
2023-02-18T21:21:10.290Z,96695.00
2023-02-18T21:25:16.228Z,96698.00
2023-02-18T21:29:27.631Z,96689.00
2023-02-18T21:33:33.083Z,96685.00
2023-02-18T21:37:36.875Z,96691.00
2023-02-18T21:41:41.713Z,96690.00
2023-02-18T21:45:49.003Z,96696.00
2023-02-18T21:49:54.333Z,96705.00
2023-02-18T21:53:57.359Z,96692.00
2023-02-18T21:58:01.919Z,96701.00
2023-02-18T22:02:06.424Z,96686.00
2023-02-18T22:06:10.536Z,96685.00
2023-02-18T22:10:15.840Z,96687.00
2023-02-18T22:14:22.699Z,96684.00
2023-02-18T22:18:27.045Z,96696.00
2023-02-18T22:22:32.100Z,96695.00
2023-02-18T22:26:37.132Z,96685.00
2023-02-18T22:30:42.490Z,96697.00
2023-02-18T22:34:45.555Z,96674.00
2023-02-18T22:38:49.353Z,96680.00
2023-02-18T22:42:55.349Z,96678.00
2023-02-18T22:47:02.261Z,96670.00
2023-02-18T22:51:07.713Z,96676.00
2023-02-18T22:55:10.913Z,96671.00
2023-02-18T22:59:14.772Z,96668.00
2023-02-18T23:03:19.227Z,96665.00
2023-02-18T23:07:26.542Z,96660.00
2023-02-18T23:11:33.210Z,96649.00
2023-02-18T23:15:36.281Z,96657.00
2023-02-18T23:19:54.395Z,96658.00
2023-02-18T23:23:57.749Z,96665.00
2023-02-18T23:28:01.107Z,96648.00
2023-02-18T23:32:08.364Z,96639.00
2023-02-18T23:36:15.436Z,96645.00
2023-02-18T23:40:18.867Z,96631.00
2023-02-18T23:44:24.397Z,96642.00
2023-02-18T23:48:29.436Z,96638.00
2023-02-18T23:52:34.287Z,96623.00
2023-02-18T23:56:39.645Z,96624.00
